sensor_id;sensor_type;location;lat;lon;timestamp;pressure;altitude;pressure_sealevel;temperature;humidity
15674;BME280;7937;48.090;16.212;2023-09-19T00:02:37;97119.56;;;16.18;89.73
15674;BME280;7937;48.090;16.212;2023-09-19T00:06:19;97224.19;;;16.71;94.95
15674;BME280;7937;48.090;16.212;2023-09-19T00:09:57;97323.03;;;17.17;97.70
15674;BME280;7937;48.090;16.212;2023-09-19T00:13:04;97216.69;;;16.31;98.00
15674;BME280;7937;48.090;16.212;2023-09-19T00:16:26;97129.22;;;15.58;99.77
15674;BME280;7937;48.090;16.212;2023-09-19T00:19:33;97306.59;;;16.62;100.00
15674;BME280;7937;48.090;16.212;2023-09-19T00:22:40;97096.09;;;14.95;100.00
15674;BME280;7937;48.090;16.212;2023-09-19T00:25:51;97267.94;;;16.15;100.00
15674;BME280;7937;48.090;16.212;2023-09-19T00:29:04;97107.09;;;14.94;100.00
15674;BME280;7937;48.090;16.212;2023-09-19T00:32:14;97345.28;;;16.42;100.00
15674;BME280;7937;48.090;16.212;2023-09-19T00:35:24;97049.56;;;14.52;100.00
15674;BME280;7937;48.090;16.212;2023-09-19T00:38:26;97226.47;;;15.49;100.00
15674;BME280;7937;48.090;16.212;2023-09-19T00:41:47;97341.19;;;16.26;100.00
15674;BME280;7937;48.090;16.212;2023-09-19T00:44:58;96985.91;;;13.76;100.00
15674;BME280;7937;48.090;16.212;2023-09-19T00:48:15;96968.44;;;13.44;100.00
15674;BME280;7937;48.090;16.212;2023-09-19T00:51:27;97135.31;;;14.57;100.00
15674;BME280;7937;48.090;16.212;2023-09-19T00:54:37;97175.47;;;14.62;100.00
15674;BME280;7937;48.090;16.212;2023-09-19T00:57:48;97329.97;;;15.66;100.00
15674;BME280;7937;48.090;16.212;2023-09-19T01:01:09;97329.47;;;15.64;100.00
15674;BME280;7937;48.090;16.212;2023-09-19T01:04:22;97155.53;;;14.39;100.00
15674;BME280;7937;48.090;16.212;2023-09-19T01:07:32;97178.28;;;14.81;100.00
15674;BME280;7937;48.090;16.212;2023-09-19T01:10:55;97224.19;;;15.09;100.00
15674;BME280;7937;48.090;16.212;2023-09-19T01:29:42;97129.34;;;14.26;100.00
15674;BME280;7937;48.090;16.212;2023-09-19T01:33:01;97353.34;;;15.65;100.00
15674;BME280;7937;48.090;16.212;2023-09-19T01:42:12;97359.56;;;15.56;100.00
15674;BME280;7937;48.090;16.212;2023-09-19T01:50:29;97349.50;;;15.42;100.00
15674;BME280;7937;48.090;16.212;2023-09-19T01:54:46;97077.28;;;13.59;100.00
15674;BME280;7937;48.090;16.212;2023-09-19T02:02:55;97055.41;;;13.47;100.00
15674;BME280;7937;48.090;16.212;2023-09-19T02:06:48;97149.16;;;14.30;100.00
15674;BME280;7937;48.090;16.212;2023-09-19T02:09:50;97125.28;;;13.94;100.00
15674;BME280;7937;48.090;16.212;2023-09-19T02:12:53;97340.38;;;15.43;100.00
15674;BME280;7937;48.090;16.212;2023-09-19T02:16:24;97152.59;;;14.36;100.00
15674;BME280;7937;48.090;16.212;2023-09-19T02:19:46;97197.13;;;14.71;100.00
15674;BME280;7937;48.090;16.212;2023-09-19T02:23:12;97103.00;;;14.04;100.00
15674;BME280;7937;48.090;16.212;2023-09-19T02:27:22;97156.38;;;14.35;100.00
15674;BME280;7937;48.090;16.212;2023-09-19T02:31:06;97228.69;;;14.84;100.00
15674;BME280;7937;48.090;16.212;2023-09-19T02:34:29;97311.69;;;15.39;100.00
15674;BME280;7937;48.090;16.212;2023-09-19T02:37:31;97152.97;;;14.24;100.00
15674;BME280;7937;48.090;16.212;2023-09-19T02:40:47;97291.97;;;15.19;100.00
15674;BME280;7937;48.090;16.212;2023-09-19T02:44:23;97205.88;;;14.42;100.00
15674;BME280;7937;48.090;16.212;2023-09-19T02:47:26;97051.34;;;13.54;100.00
15674;BME280;7937;48.090;16.212;2023-09-19T02:50:37;97119.19;;;13.79;100.00
15674;BME280;7937;48.090;16.212;2023-09-19T02:53:47;97117.88;;;13.76;100.00
15674;BME280;7937;48.090;16.212;2023-09-19T02:56:59;97250.91;;;14.90;100.00
15674;BME280;7937;48.090;16.212;2023-09-19T03:03:31;97131.88;;;14.07;100.00
15674;BME280;7937;48.090;16.212;2023-09-19T03:06:40;97095.03;;;13.89;100.00
15674;BME280;7937;48.090;16.212;2023-09-19T03:09:52;97106.00;;;13.92;100.00
15674;BME280;7937;48.090;16.212;2023-09-19T03:13:03;97096.06;;;13.98;100.00
15674;BME280;7937;48.090;16.212;2023-09-19T03:16:12;96881.72;;;12.56;100.00
15674;BME280;7937;48.090;16.212;2023-09-19T03:19:19;96976.09;;;13.11;100.00
15674;BME280;7937;48.090;16.212;2023-09-19T03:22:28;97191.63;;;14.52;100.00
15674;BME280;7937;48.090;16.212;2023-09-19T03:25:48;97075.00;;;13.81;100.00
15674;BME280;7937;48.090;16.212;2023-09-19T03:29:13;97153.16;;;14.33;100.00
15674;BME280;7937;48.090;16.212;2023-09-19T03:32:49;97317.50;;;15.46;100.00
15674;BME280;7937;48.090;16.212;2023-09-19T03:36:16;97180.88;;;14.57;100.00
15674;BME280;7937;48.090;16.212;2023-09-19T03:39:55;97102.75;;;14.01;100.00
15674;BME280;7937;48.090;16.212;2023-09-19T03:43:07;97327.13;;;15.52;100.00
15674;BME280;7937;48.090;16.212;2023-09-19T03:46:36;97330.88;;;15.51;100.00
15674;BME280;7937;48.090;16.212;2023-09-19T03:49:49;97231.31;;;14.89;100.00
15674;BME280;7937;48.090;16.212;2023-09-19T03:53:04;97153.34;;;14.41;100.00
15674;BME280;7937;48.090;16.212;2023-09-19T03:56:09;97265.31;;;14.99;100.00
15674;BME280;7937;48.090;16.212;2023-09-19T03:59:24;97312.34;;;15.55;100.00
15674;BME280;7937;48.090;16.212;2023-09-19T04:02:38;97124.97;;;14.40;100.00
15674;BME280;7937;48.090;16.212;2023-09-19T04:09:56;97277.97;;;15.57;100.00
15674;BME280;7937;48.090;16.212;2023-09-19T04:13:10;97128.38;;;14.85;100.00
15674;BME280;7937;48.090;16.212;2023-09-19T04:17:04;97365.47;;;16.40;100.00
15674;BME280;7937;48.090;16.212;2023-09-19T04:20:18;97291.34;;;15.62;100.00
15674;BME280;7937;48.090;16.212;2023-09-19T04:23:41;97208.50;;;14.92;100.00
15674;BME280;7937;48.090;16.212;2023-09-19T04:26:50;97299.00;;;15.44;100.00
15674;BME280;7937;48.090;16.212;2023-09-19T04:30:02;97228.75;;;14.74;100.00
15674;BME280;7937;48.090;16.212;2023-09-19T04:33:15;97218.69;;;14.56;100.00
15674;BME280;7937;48.090;16.212;2023-09-19T04:36:20;97321.59;;;15.04;100.00
15674;BME280;7937;48.090;16.212;2023-09-19T04:39:55;97267.22;;;14.54;100.00
15674;BME280;7937;48.090;16.212;2023-09-19T04:42:58;97203.72;;;14.00;100.00
15674;BME280;7937;48.090;16.212;2023-09-19T04:46:11;97236.34;;;14.07;100.00
15674;BME280;7937;48.090;16.212;2023-09-19T04:49:23;97396.41;;;15.11;100.00
15674;BME280;7937;48.090;16.212;2023-09-19T04:52:51;97212.38;;;13.77;100.00
15674;BME280;7937;48.090;16.212;2023-09-19T04:56:02;97301.25;;;14.59;100.00
15674;BME280;7937;48.090;16.212;2023-09-19T04:59:24;97352.31;;;14.78;100.00
15674;BME280;7937;48.090;16.212;2023-09-19T05:02:30;97304.81;;;14.34;100.00
15674;BME280;7937;48.090;16.212;2023-09-19T05:05:39;97309.31;;;14.54;100.00
15674;BME280;7937;48.090;16.212;2023-09-19T05:08:51;97420.84;;;15.09;100.00
15674;BME280;7937;48.090;16.212;2023-09-19T05:12:17;97337.47;;;14.51;100.00
15674;BME280;7937;48.090;16.212;2023-09-19T05:15:26;97324.63;;;14.38;100.00
15674;BME280;7937;48.090;16.212;2023-09-19T05:18:54;97256.19;;;14.01;100.00
15674;BME280;7937;48.090;16.212;2023-09-19T05:22:01;97343.09;;;14.55;100.00
15674;BME280;7937;48.090;16.212;2023-09-19T05:25:06;97259.22;;;13.79;100.00
15674;BME280;7937;48.090;16.212;2023-09-19T05:28:13;97318.25;;;14.18;100.00
15674;BME280;7937;48.090;16.212;2023-09-19T05:31:20;97473.97;;;15.12;100.00
15674;BME280;7937;48.090;16.212;2023-09-19T05:34:34;97252.50;;;13.82;100.00
15674;BME280;7937;48.090;16.212;2023-09-19T05:37:51;97271.00;;;13.78;100.00
15674;BME280;7937;48.090;16.212;2023-09-19T05:41:00;97133.66;;;12.87;100.00
15674;BME280;7937;48.090;16.212;2023-09-19T05:44:15;97357.59;;;14.49;100.00
15674;BME280;7937;48.090;16.212;2023-09-19T05:47:17;97202.00;;;13.60;100.00
15674;BME280;7937;48.090;16.212;2023-09-19T05:50:26;97343.94;;;14.35;100.00
15674;BME280;7937;48.090;16.212;2023-09-19T05:53:40;97359.34;;;14.74;100.00
15674;BME280;7937;48.090;16.212;2023-09-19T05:56:54;97136.81;;;13.30;100.00
15674;BME280;7937;48.090;16.212;2023-09-19T06:00:05;97332.28;;;14.70;100.00
15674;BME280;7937;48.090;16.212;2023-09-19T06:03:30;97330.97;;;14.62;100.00
15674;BME280;7937;48.090;16.212;2023-09-19T06:06:39;97401.25;;;15.09;100.00
15674;BME280;7937;48.090;16.212;2023-09-19T06:09:56;97320.00;;;14.59;100.00
15674;BME280;7937;48.090;16.212;2023-09-19T06:13:02;97420.00;;;15.14;100.00
15674;BME280;7937;48.090;16.212;2023-09-19T06:16:13;97258.06;;;14.06;100.00
15674;BME280;7937;48.090;16.212;2023-09-19T06:19:20;97213.16;;;13.82;100.00
15674;BME280;7937;48.090;16.212;2023-09-19T06:22:29;97475.13;;;15.40;100.00
15674;BME280;7937;48.090;16.212;2023-09-19T06:25:37;97400.59;;;14.78;100.00
15674;BME280;7937;48.090;16.212;2023-09-19T06:28:46;97466.19;;;15.06;100.00
15674;BME280;7937;48.090;16.212;2023-09-19T06:31:53;97452.22;;;15.09;100.00
15674;BME280;7937;48.090;16.212;2023-09-19T06:35:01;97363.16;;;14.47;100.00
15674;BME280;7937;48.090;16.212;2023-09-19T06:38:07;97323.63;;;14.13;100.00
15674;BME280;7937;48.090;16.212;2023-09-19T06:41:29;97351.47;;;14.23;100.00
15674;BME280;7937;48.090;16.212;2023-09-19T06:44:41;97467.56;;;15.03;100.00
15674;BME280;7937;48.090;16.212;2023-09-19T06:47:50;97469.19;;;14.99;100.00
15674;BME280;7937;48.090;16.212;2023-09-19T06:50:56;97363.19;;;14.42;100.00
15674;BME280;7937;48.090;16.212;2023-09-19T06:54:03;97329.25;;;14.17;100.00
15674;BME280;7937;48.090;16.212;2023-09-19T06:57:18;97243.16;;;13.74;100.00
15674;BME280;7937;48.090;16.212;2023-09-19T07:00:32;97401.78;;;14.56;100.00
15674;BME280;7937;48.090;16.212;2023-09-19T07:04:14;97541.31;;;15.65;100.00
15674;BME280;7937;48.090;16.212;2023-09-19T07:07:25;97341.84;;;14.16;100.00
15674;BME280;7937;48.090;16.212;2023-09-19T07:10:42;97483.81;;;15.27;100.00
15674;BME280;7937;48.090;16.212;2023-09-19T07:14:14;97307.56;;;14.24;100.00
15674;BME280;7937;48.090;16.212;2023-09-19T07:17:17;97325.75;;;14.27;100.00
15674;BME280;7937;48.090;16.212;2023-09-19T07:20:28;97412.31;;;14.92;100.00
15674;BME280;7937;48.090;16.212;2023-09-19T07:24:02;97485.59;;;15.37;100.00
15674;BME280;7937;48.090;16.212;2023-09-19T07:27:14;97453.59;;;15.01;100.00
15674;BME280;7937;48.090;16.212;2023-09-19T07:30:18;97454.28;;;15.27;100.00
15674;BME280;7937;48.090;16.212;2023-09-19T07:33:38;97492.25;;;15.49;100.00
15674;BME280;7937;48.090;16.212;2023-09-19T07:37:07;97492.75;;;15.57;100.00
15674;BME280;7937;48.090;16.212;2023-09-19T07:40:14;97467.31;;;15.44;100.00
15674;BME280;7937;48.090;16.212;2023-09-19T07:43:16;97500.84;;;15.96;100.00
15674;BME280;7937;48.090;16.212;2023-09-19T07:46:26;97536.31;;;16.27;100.00
15674;BME280;7937;48.090;16.212;2023-09-19T07:49:39;97374.06;;;15.20;100.00
15674;BME280;7937;48.090;16.212;2023-09-19T07:52:50;97537.94;;;16.57;97.90
15674;BME280;7937;48.090;16.212;2023-09-19T07:56:08;97599.09;;;17.05;100.00
15674;BME280;7937;48.090;16.212;2023-09-19T07:59:13;97368.47;;;15.51;100.00
15674;BME280;7937;48.090;16.212;2023-09-19T08:02:22;97353.16;;;15.57;100.00
15674;BME280;7937;48.090;16.212;2023-09-19T08:05:31;97305.81;;;15.32;100.00
15674;BME280;7937;48.090;16.212;2023-09-19T08:08:37;97486.66;;;16.19;100.00
15674;BME280;7937;48.090;16.212;2023-09-19T08:11:40;97400.66;;;15.90;95.24
15674;BME280;7937;48.090;16.212;2023-09-19T08:14:51;97334.03;;;15.29;100.00
15674;BME280;7937;48.090;16.212;2023-09-19T08:17:55;97410.91;;;15.88;100.00
15674;BME280;7937;48.090;16.212;2023-09-19T08:20:58;97586.31;;;16.91;100.00
15674;BME280;7937;48.090;16.212;2023-09-19T08:24:15;97484.22;;;16.23;96.00
15674;BME280;7937;48.090;16.212;2023-09-19T08:27:24;97660.22;;;17.28;91.99
15674;BME280;7937;48.090;16.212;2023-09-19T08:30:37;97645.31;;;17.12;93.11
15674;BME280;7937;48.090;16.212;2023-09-19T08:34:03;97505.91;;;16.32;94.52
15674;BME280;7937;48.090;16.212;2023-09-19T08:37:23;97463.03;;;15.87;92.91
15674;BME280;7937;48.090;16.212;2023-09-19T08:40:37;97521.03;;;16.22;99.05
15674;BME280;7937;48.090;16.212;2023-09-19T08:43:59;97677.84;;;17.44;96.77
15674;BME280;7937;48.090;16.212;2023-09-19T08:47:18;97514.78;;;16.32;95.11
15674;BME280;7937;48.090;16.212;2023-09-19T08:50:29;97653.31;;;17.46;93.26
15674;BME280;7937;48.090;16.212;2023-09-19T08:54:19;97679.50;;;17.88;89.88
15674;BME280;7937;48.090;16.212;2023-09-19T08:57:33;97385.84;;;16.22;84.35
15674;BME280;7937;48.090;16.212;2023-09-19T09:00:47;97637.78;;;18.04;83.62
15674;BME280;7937;48.090;16.212;2023-09-19T09:03:57;97676.97;;;18.35;82.63
15674;BME280;7937;48.090;16.212;2023-09-19T09:07:14;97682.81;;;18.23;86.36
15674;BME280;7937;48.090;16.212;2023-09-19T09:10:20;97653.66;;;18.06;84.17
15674;BME280;7937;48.090;16.212;2023-09-19T09:13:48;97657.00;;;17.98;83.55
15674;BME280;7937;48.090;16.212;2023-09-19T09:16:55;97524.66;;;16.95;86.69
15674;BME280;7937;48.090;16.212;2023-09-19T09:20:08;97624.28;;;17.62;88.46
15674;BME280;7937;48.090;16.212;2023-09-19T09:23:18;97642.00;;;17.68;89.90
15674;BME280;7937;48.090;16.212;2023-09-19T09:29:46;97528.72;;;16.92;84.95
15674;BME280;7937;48.090;16.212;2023-09-19T09:33:18;97682.06;;;18.17;90.87
15674;BME280;7937;48.090;16.212;2023-09-19T09:36:37;97683.25;;;18.30;82.87
15674;BME280;7937;48.090;16.212;2023-09-19T09:40:00;97510.91;;;17.20;86.51
15674;BME280;7937;48.090;16.212;2023-09-19T09:46:50;97561.91;;;17.54;85.91
15674;BME280;7937;48.090;16.212;2023-09-19T09:50:05;97657.06;;;18.12;83.21
15674;BME280;7937;48.090;16.212;2023-09-19T09:53:29;97654.47;;;18.25;82.84
15674;BME280;7937;48.090;16.212;2023-09-19T09:59:59;97686.13;;;18.90;81.59
15674;BME280;7937;48.090;16.212;2023-09-19T10:03:37;97477.72;;;17.63;79.19
15674;BME280;7937;48.090;16.212;2023-09-19T10:07:03;97691.56;;;19.04;84.18
15674;BME280;7937;48.090;16.212;2023-09-19T10:10:40;97673.88;;;18.98;84.87
15674;BME280;7937;48.090;16.212;2023-09-19T10:13:52;97576.19;;;18.63;79.46
15674;BME280;7937;48.090;16.212;2023-09-19T10:17:06;97661.81;;;19.23;79.30
15674;BME280;7937;48.090;16.212;2023-09-19T10:20:17;97635.63;;;19.37;80.20
15674;BME280;7937;48.090;16.212;2023-09-19T10:23:32;97509.41;;;18.55;80.57
15674;BME280;7937;48.090;16.212;2023-09-19T10:26:45;97556.38;;;19.42;71.55
15674;BME280;7937;48.090;16.212;2023-09-19T10:30:04;97633.78;;;20.01;76.91
15674;BME280;7937;48.090;16.212;2023-09-19T10:33:43;97439.97;;;18.61;71.85
15674;BME280;7937;48.090;16.212;2023-09-19T10:37:12;97534.13;;;19.45;73.97
15674;BME280;7937;48.090;16.212;2023-09-19T10:40:21;97663.41;;;20.43;70.26
15674;BME280;7937;48.090;16.212;2023-09-19T10:43:35;97601.25;;;19.93;68.20
15674;BME280;7937;48.090;16.212;2023-09-19T10:46:47;97547.59;;;19.86;67.14
15674;BME280;7937;48.090;16.212;2023-09-19T10:50:06;97660.25;;;20.63;74.52
15674;BME280;7937;48.090;16.212;2023-09-19T10:53:23;97278.63;;;18.21;76.72
15674;BME280;7937;48.090;16.212;2023-09-19T10:56:32;97439.97;;;19.52;76.09
15674;BME280;7937;48.090;16.212;2023-09-19T11:00:08;97668.84;;;20.87;70.54
15674;BME280;7937;48.090;16.212;2023-09-19T11:03:38;97689.53;;;20.83;69.90
15674;BME280;7937;48.090;16.212;2023-09-19T11:07:15;97575.94;;;20.33;71.90
15674;BME280;7937;48.090;16.212;2023-09-19T11:10:49;97673.47;;;20.87;70.87
15674;BME280;7937;48.090;16.212;2023-09-19T11:17:56;97640.66;;;20.44;67.41
15674;BME280;7937;48.090;16.212;2023-09-19T11:24:46;97688.06;;;20.77;72.13
15674;BME280;7937;48.090;16.212;2023-09-19T11:31:45;97519.25;;;19.83;66.06
15674;BME280;7937;48.090;16.212;2023-09-19T11:35:12;97624.53;;;20.39;67.58
15674;BME280;7937;48.090;16.212;2023-09-19T11:46:01;97599.88;;;20.85;67.64
15674;BME280;7937;48.090;16.212;2023-09-19T11:49:14;97537.00;;;20.34;62.76
15674;BME280;7937;48.090;16.212;2023-09-19T11:52:54;97439.97;;;19.66;63.30
15674;BME280;7937;48.090;16.212;2023-09-19T11:56:06;97497.47;;;20.02;64.40
15674;BME280;7937;48.090;16.212;2023-09-19T11:59:27;97482.75;;;19.95;63.96
15674;BME280;7937;48.090;16.212;2023-09-19T12:02:42;97684.91;;;21.06;69.34
15674;BME280;7937;48.090;16.212;2023-09-19T12:06:23;97492.19;;;19.97;61.32
15674;BME280;7937;48.090;16.212;2023-09-19T12:09:28;97515.34;;;20.12;61.11
15674;BME280;7937;48.090;16.212;2023-09-19T12:12:31;97561.75;;;20.28;64.39
15674;BME280;7937;48.090;16.212;2023-09-19T12:15:44;97555.22;;;20.29;62.87
15674;BME280;7937;48.090;16.212;2023-09-19T12:19:20;97499.50;;;19.97;66.03
15674;BME280;7937;48.090;16.212;2023-09-19T12:22:25;97574.22;;;20.51;62.91
15674;BME280;7937;48.090;16.212;2023-09-19T12:25:45;97459.19;;;19.87;61.79
15674;BME280;7937;48.090;16.212;2023-09-19T12:28:59;97505.38;;;20.21;63.91
15674;BME280;7937;48.090;16.212;2023-09-19T12:32:08;97453.38;;;19.79;60.81
15674;BME280;7937;48.090;16.212;2023-09-19T12:35:33;97500.72;;;20.35;59.53
15674;BME280;7937;48.090;16.212;2023-09-19T12:38:48;97536.34;;;20.38;59.01
15674;BME280;7937;48.090;16.212;2023-09-19T12:42:22;97518.59;;;20.23;58.27
15674;BME280;7937;48.090;16.212;2023-09-19T12:45:44;97605.72;;;20.78;61.69
15674;BME280;7937;48.090;16.212;2023-09-19T12:49:18;97676.75;;;21.29;61.13
15674;BME280;7937;48.090;16.212;2023-09-19T12:52:21;97480.13;;;20.03;58.15
15674;BME280;7937;48.090;16.212;2023-09-19T12:55:57;97464.88;;;19.85;61.27
15674;BME280;7937;48.090;16.212;2023-09-19T12:59:33;97645.06;;;21.07;63.62
15674;BME280;7937;48.090;16.212;2023-09-19T13:06:35;97687.03;;;21.41;62.49
15674;BME280;7937;48.090;16.212;2023-09-19T13:10:03;97490.75;;;20.00;60.06
15674;BME280;7937;48.090;16.212;2023-09-19T13:13:34;97602.84;;;20.75;61.23
15674;BME280;7937;48.090;16.212;2023-09-19T13:20:02;97609.06;;;20.75;59.76
15674;BME280;7937;48.090;16.212;2023-09-19T13:23:26;97505.13;;;20.09;57.52
15674;BME280;7937;48.090;16.212;2023-09-19T13:26:28;97597.25;;;20.49;62.28
15674;BME280;7937;48.090;16.212;2023-09-19T13:29:53;97498.03;;;19.91;57.34
15674;BME280;7937;48.090;16.212;2023-09-19T13:33:10;97448.75;;;19.57;57.77
15674;BME280;7937;48.090;16.212;2023-09-19T13:36:14;97594.44;;;20.54;56.88
15674;BME280;7937;48.090;16.212;2023-09-19T13:39:20;97668.72;;;21.15;60.06
15674;BME280;7937;48.090;16.212;2023-09-19T13:42:24;97524.19;;;20.04;61.91
15674;BME280;7937;48.090;16.212;2023-09-19T13:45:41;97473.97;;;19.53;64.30
15674;BME280;7937;48.090;16.212;2023-09-19T13:48:51;97514.41;;;19.94;57.88
15674;BME280;7937;48.090;16.212;2023-09-19T13:52:04;97673.63;;;21.13;57.43
15674;BME280;7937;48.090;16.212;2023-09-19T13:55:07;97681.38;;;21.28;57.33
15674;BME280;7937;48.090;16.212;2023-09-19T13:58:15;97492.25;;;20.06;59.28
15674;BME280;7937;48.090;16.212;2023-09-19T14:04:46;97632.63;;;20.75;59.43
15674;BME280;7937;48.090;16.212;2023-09-19T14:07:55;97606.78;;;20.46;61.43
15674;BME280;7937;48.090;16.212;2023-09-19T14:10:57;97506.81;;;19.96;62.68
15674;BME280;7937;48.090;16.212;2023-09-19T14:14:02;97454.78;;;19.41;64.61
15674;BME280;7937;48.090;16.212;2023-09-19T14:17:17;97429.00;;;19.34;60.34
15674;BME280;7937;48.090;16.212;2023-09-19T14:20:48;97455.00;;;19.44;62.20
15674;BME280;7937;48.090;16.212;2023-09-19T14:24:04;97663.81;;;20.72;64.65
15674;BME280;7937;48.090;16.212;2023-09-19T14:27:23;97533.03;;;19.59;66.72
15674;BME280;7937;48.090;16.212;2023-09-19T14:30:29;97496.94;;;19.28;68.24
15674;BME280;7937;48.090;16.212;2023-09-19T14:37:25;97673.44;;;20.56;66.06
15674;BME280;7937;48.090;16.212;2023-09-19T14:40:30;97396.00;;;18.60;62.56
15674;BME280;7937;48.090;16.212;2023-09-19T14:43:45;97463.00;;;19.36;59.98
15674;BME280;7937;48.090;16.212;2023-09-19T14:46:54;97487.28;;;19.49;63.77
15674;BME280;7937;48.090;16.212;2023-09-19T14:49:58;97521.03;;;19.52;64.90
15674;BME280;7937;48.090;16.212;2023-09-19T14:53:00;97512.16;;;19.38;66.61
15674;BME280;7937;48.090;16.212;2023-09-19T14:56:14;97465.88;;;18.75;67.30
15674;BME280;7937;48.090;16.212;2023-09-19T14:59:27;97519.34;;;19.01;67.15
15674;BME280;7937;48.090;16.212;2023-09-19T15:02:44;97592.06;;;19.52;67.41
15674;BME280;7937;48.090;16.212;2023-09-19T15:06:00;97459.56;;;18.52;66.14
15674;BME280;7937;48.090;16.212;2023-09-19T15:09:17;97647.00;;;19.89;65.23
15674;BME280;7937;48.090;16.212;2023-09-19T15:12:31;97396.28;;;18.17;66.25
15674;BME280;7937;48.090;16.212;2023-09-19T15:15:41;97537.47;;;18.87;68.44
15674;BME280;7937;48.090;16.212;2023-09-19T15:18:48;97667.78;;;19.66;68.63
15674;BME280;7937;48.090;16.212;2023-09-19T15:21:55;97671.06;;;19.63;68.57
15674;BME280;7937;48.090;16.212;2023-09-19T15:25:05;97696.56;;;19.98;65.04
15674;BME280;7937;48.090;16.212;2023-09-19T15:28:27;97536.25;;;18.79;69.05
15674;BME280;7937;48.090;16.212;2023-09-19T15:31:37;97625.91;;;19.36;67.08
15674;BME280;7937;48.090;16.212;2023-09-19T15:34:41;97510.91;;;18.47;66.22
15674;BME280;7937;48.090;16.212;2023-09-19T15:37:46;97505.13;;;18.68;65.71
15674;BME280;7937;48.090;16.212;2023-09-19T15:40:49;97638.59;;;19.36;67.48
15674;BME280;7937;48.090;16.212;2023-09-19T15:43:56;97575.06;;;18.97;66.83
15674;BME280;7937;48.090;16.212;2023-09-19T15:47:31;97713.00;;;19.88;62.79
15674;BME280;7937;48.090;16.212;2023-09-19T15:51:25;97587.47;;;18.98;66.57
15674;BME280;7937;48.090;16.212;2023-09-19T16:04:46;97625.53;;;18.96;65.89
15674;BME280;7937;48.090;16.212;2023-09-19T16:07:50;97658.34;;;18.90;67.61
15674;BME280;7937;48.090;16.212;2023-09-19T16:15:09;97712.53;;;18.93;72.36
15674;BME280;7937;48.090;16.212;2023-09-19T16:19:01;97481.16;;;17.31;74.05
15674;BME280;7937;48.090;16.212;2023-09-19T16:22:50;97620.22;;;17.88;74.14
15674;BME280;7937;48.090;16.212;2023-09-19T16:26:13;97587.66;;;17.61;75.21
15674;BME280;7937;48.090;16.212;2023-09-19T16:30:03;97550.31;;;17.11;74.42
15674;BME280;7937;48.090;16.212;2023-09-19T16:33:25;97569.47;;;17.28;76.04
15674;BME280;7937;48.090;16.212;2023-09-19T16:37:18;97698.94;;;17.85;78.75
15674;BME280;7937;48.090;16.212;2023-09-19T16:40:32;97651.34;;;17.51;79.75
15674;BME280;7937;48.090;16.212;2023-09-19T16:44:11;97517.72;;;16.60;80.54
15674;BME280;7937;48.090;16.212;2023-09-19T16:48:23;97713.97;;;17.91;82.55
15674;BME280;7937;48.090;16.212;2023-09-19T16:52:13;97533.25;;;16.97;74.72
15674;BME280;7937;48.090;16.212;2023-09-19T16:55:53;97567.59;;;17.29;75.90
15674;BME280;7937;48.090;16.212;2023-09-19T16:59:38;97674.47;;;17.82;78.14
15674;BME280;7937;48.090;16.212;2023-09-19T17:03:18;97509.19;;;16.52;79.10
15674;BME280;7937;48.090;16.212;2023-09-19T17:06:43;97502.28;;;16.46;80.15
15674;BME280;7937;48.090;16.212;2023-09-19T17:09:56;97636.28;;;17.26;79.43
15674;BME280;7937;48.090;16.212;2023-09-19T17:13:53;97661.09;;;17.47;78.26
15674;BME280;7937;48.090;16.212;2023-09-19T17:17:00;97649.44;;;17.52;77.71
15674;BME280;7937;48.090;16.212;2023-09-19T17:20:32;97611.31;;;17.21;77.88
15674;BME280;7937;48.090;16.212;2023-09-19T17:23:41;97663.28;;;17.45;79.99
15674;BME280;7937;48.090;16.212;2023-09-19T17:26:53;97748.69;;;17.93;76.37
15674;BME280;7937;48.090;16.212;2023-09-19T17:30:19;97740.53;;;17.98;77.51
15674;BME280;7937;48.090;16.212;2023-09-19T17:34:01;97738.75;;;18.12;74.36
15674;BME280;7937;48.090;16.212;2023-09-19T17:37:47;97735.06;;;18.08;75.59
15674;BME280;7937;48.090;16.212;2023-09-19T17:41:13;97551.88;;;16.59;75.17
15674;BME280;7937;48.090;16.212;2023-09-19T17:44:55;97696.84;;;17.53;76.00
15674;BME280;7937;48.090;16.212;2023-09-19T17:53:20;97503.84;;;15.89;80.12
15674;BME280;7937;48.090;16.212;2023-09-19T17:57:29;97527.91;;;15.65;83.54
15674;BME280;7937;48.090;16.212;2023-09-19T18:06:37;97625.25;;;15.91;85.14
15674;BME280;7937;48.090;16.212;2023-09-19T18:20:44;97801.25;;;16.54;87.18
15674;BME280;7937;48.090;16.212;2023-09-19T18:24:53;97676.16;;;15.52;87.57
15674;BME280;7937;48.090;16.212;2023-09-19T18:53:20;97649.63;;;14.03;93.63
15674;BME280;7937;48.090;16.212;2023-09-19T18:58:01;97571.03;;;13.41;94.85
15674;BME280;7937;48.090;16.212;2023-09-19T19:02:01;97613.13;;;13.61;95.12
15674;BME280;7937;48.090;16.212;2023-09-19T19:06:17;97810.88;;;14.73;96.31
15674;BME280;7937;48.090;16.212;2023-09-19T19:10:55;97721.69;;;13.94;96.97
15674;BME280;7937;48.090;16.212;2023-09-19T19:14:02;97751.44;;;14.08;98.17
15674;BME280;7937;48.090;16.212;2023-09-19T19:17:57;97834.97;;;14.52;99.77
15674;BME280;7937;48.090;16.212;2023-09-19T19:21:34;97705.72;;;13.62;100.00
15674;BME280;7937;48.090;16.212;2023-09-19T19:29:59;97795.03;;;13.93;100.00
15674;BME280;7937;48.090;16.212;2023-09-19T19:33:29;97798.75;;;13.87;100.00
15674;BME280;7937;48.090;16.212;2023-09-19T19:37:07;97810.56;;;13.91;100.00
15674;BME280;7937;48.090;16.212;2023-09-19T19:40:30;97844.16;;;14.09;100.00
15674;BME280;7937;48.090;16.212;2023-09-19T19:44:24;97760.22;;;13.40;100.00
15674;BME280;7937;48.090;16.212;2023-09-19T20:03:47;97851.41;;;13.71;100.00
15674;BME280;7937;48.090;16.212;2023-09-19T20:07:59;97795.97;;;13.29;100.00
15674;BME280;7937;48.090;16.212;2023-09-19T20:12:24;97760.13;;;12.98;100.00
15674;BME280;7937;48.090;16.212;2023-09-19T20:17:02;97856.41;;;13.57;100.00